sensor_id;sensor_type;location;lat;lon;timestamp;temperature;humidity
19397;DHT22;9834;48.076;11.878;2023-04-25T00:00:32;4.90;99.90
19397;DHT22;9834;48.076;11.878;2023-04-25T00:03:01;4.90;99.90
19397;DHT22;9834;48.076;11.878;2023-04-25T00:05:32;5.00;99.90
19397;DHT22;9834;48.076;11.878;2023-04-25T00:08:02;5.00;99.90
19397;DHT22;9834;48.076;11.878;2023-04-25T00:10:29;5.00;99.90
19397;DHT22;9834;48.076;11.878;2023-04-25T00:12:57;5.10;99.90
19397;DHT22;9834;48.076;11.878;2023-04-25T00:15:28;5.20;99.90
19397;DHT22;9834;48.076;11.878;2023-04-25T00:17:56;5.30;99.90
19397;DHT22;9834;48.076;11.878;2023-04-25T00:20:24;5.30;99.90
19397;DHT22;9834;48.076;11.878;2023-04-25T00:22:53;5.40;99.90
19397;DHT22;9834;48.076;11.878;2023-04-25T00:25:21;5.40;99.90
19397;DHT22;9834;48.076;11.878;2023-04-25T00:27:49;5.50;99.90
19397;DHT22;9834;48.076;11.878;2023-04-25T00:30:17;5.50;99.90
19397;DHT22;9834;48.076;11.878;2023-04-25T00:32:44;5.50;99.90
19397;DHT22;9834;48.076;11.878;2023-04-25T00:35:14;5.60;99.90
19397;DHT22;9834;48.076;11.878;2023-04-25T00:37:41;5.70;99.90
19397;DHT22;9834;48.076;11.878;2023-04-25T00:40:11;5.70;99.90
19397;DHT22;9834;48.076;11.878;2023-04-25T00:42:38;5.80;99.90
19397;DHT22;9834;48.076;11.878;2023-04-25T00:45:07;5.90;99.90
19397;DHT22;9834;48.076;11.878;2023-04-25T00:47:36;6.00;99.90
19397;DHT22;9834;48.076;11.878;2023-04-25T00:50:05;6.10;99.90
19397;DHT22;9834;48.076;11.878;2023-04-25T00:52:32;6.20;99.90
19397;DHT22;9834;48.076;11.878;2023-04-25T00:55:04;6.20;99.90
19397;DHT22;9834;48.076;11.878;2023-04-25T00:57:33;6.30;99.90
19397;DHT22;9834;48.076;11.878;2023-04-25T01:00:06;6.30;99.90
19397;DHT22;9834;48.076;11.878;2023-04-25T01:02:35;6.30;99.90
19397;DHT22;9834;48.076;11.878;2023-04-25T01:05:04;6.40;99.90
19397;DHT22;9834;48.076;11.878;2023-04-25T01:07:31;6.40;99.90
19397;DHT22;9834;48.076;11.878;2023-04-25T01:09:59;6.40;99.90
19397;DHT22;9834;48.076;11.878;2023-04-25T01:12:30;6.50;99.90
19397;DHT22;9834;48.076;11.878;2023-04-25T01:14:59;6.50;99.90
19397;DHT22;9834;48.076;11.878;2023-04-25T01:17:26;6.50;99.90
19397;DHT22;9834;48.076;11.878;2023-04-25T01:19:55;6.50;99.90
19397;DHT22;9834;48.076;11.878;2023-04-25T01:22:24;6.50;99.90
19397;DHT22;9834;48.076;11.878;2023-04-25T01:24:52;6.50;99.90
19397;DHT22;9834;48.076;11.878;2023-04-25T01:27:20;6.50;99.90
19397;DHT22;9834;48.076;11.878;2023-04-25T01:29:49;6.50;99.90
19397;DHT22;9834;48.076;11.878;2023-04-25T01:32:17;6.60;99.90
19397;DHT22;9834;48.076;11.878;2023-04-25T01:34:45;6.60;99.90
19397;DHT22;9834;48.076;11.878;2023-04-25T01:37:13;6.60;99.90
19397;DHT22;9834;48.076;11.878;2023-04-25T01:39:42;6.70;99.90
19397;DHT22;9834;48.076;11.878;2023-04-25T01:42:10;6.70;99.90
19397;DHT22;9834;48.076;11.878;2023-04-25T01:44:37;6.60;99.90
19397;DHT22;9834;48.076;11.878;2023-04-25T01:47:05;6.60;99.90
19397;DHT22;9834;48.076;11.878;2023-04-25T01:49:38;6.60;99.90
19397;DHT22;9834;48.076;11.878;2023-04-25T01:52:05;6.50;99.90
19397;DHT22;9834;48.076;11.878;2023-04-25T01:54:33;6.50;99.90
19397;DHT22;9834;48.076;11.878;2023-04-25T01:57:02;6.40;99.90
19397;DHT22;9834;48.076;11.878;2023-04-25T01:59:31;6.40;99.90
19397;DHT22;9834;48.076;11.878;2023-04-25T02:02:01;6.30;99.90
19397;DHT22;9834;48.076;11.878;2023-04-25T02:04:32;6.20;99.90
19397;DHT22;9834;48.076;11.878;2023-04-25T02:07:01;6.00;99.90
19397;DHT22;9834;48.076;11.878;2023-04-25T02:09:29;5.90;99.90
19397;DHT22;9834;48.076;11.878;2023-04-25T02:11:57;5.80;99.90
19397;DHT22;9834;48.076;11.878;2023-04-25T02:14:27;5.70;99.90
19397;DHT22;9834;48.076;11.878;2023-04-25T02:16:54;5.70;99.90
19397;DHT22;9834;48.076;11.878;2023-04-25T02:19:22;5.70;99.90
19397;DHT22;9834;48.076;11.878;2023-04-25T02:21:50;5.60;99.90
19397;DHT22;9834;48.076;11.878;2023-04-25T02:24:19;5.50;99.90
19397;DHT22;9834;48.076;11.878;2023-04-25T02:26:47;5.40;99.90
19397;DHT22;9834;48.076;11.878;2023-04-25T02:29:15;5.40;99.90
19397;DHT22;9834;48.076;11.878;2023-04-25T02:31:44;5.30;99.90
19397;DHT22;9834;48.076;11.878;2023-04-25T02:34:11;5.20;99.90
19397;DHT22;9834;48.076;11.878;2023-04-25T02:36:42;5.10;99.90
19397;DHT22;9834;48.076;11.878;2023-04-25T02:39:12;5.10;99.90
19397;DHT22;9834;48.076;11.878;2023-04-25T02:41:39;4.90;99.90
19397;DHT22;9834;48.076;11.878;2023-04-25T02:44:06;4.90;99.90
19397;DHT22;9834;48.076;11.878;2023-04-25T02:46:34;4.80;99.90
19397;DHT22;9834;48.076;11.878;2023-04-25T02:49:03;4.80;99.90
19397;DHT22;9834;48.076;11.878;2023-04-25T02:51:31;4.80;99.90
19397;DHT22;9834;48.076;11.878;2023-04-25T02:53:59;4.90;99.90
19397;DHT22;9834;48.076;11.878;2023-04-25T02:56:26;4.90;99.90
19397;DHT22;9834;48.076;11.878;2023-04-25T02:58:54;5.00;99.90
19397;DHT22;9834;48.076;11.878;2023-04-25T03:01:22;5.00;99.90
19397;DHT22;9834;48.076;11.878;2023-04-25T03:03:53;5.00;99.90
19397;DHT22;9834;48.076;11.878;2023-04-25T03:06:24;5.00;99.90
19397;DHT22;9834;48.076;11.878;2023-04-25T03:08:56;5.20;99.90
19397;DHT22;9834;48.076;11.878;2023-04-25T03:11:29;5.30;99.90
19397;DHT22;9834;48.076;11.878;2023-04-25T03:13:56;5.30;99.90
19397;DHT22;9834;48.076;11.878;2023-04-25T03:16:28;5.40;99.90
19397;DHT22;9834;48.076;11.878;2023-04-25T03:18:56;5.50;99.90
19397;DHT22;9834;48.076;11.878;2023-04-25T03:21:25;5.60;99.90
19397;DHT22;9834;48.076;11.878;2023-04-25T03:23:56;5.70;99.90
19397;DHT22;9834;48.076;11.878;2023-04-25T03:26:28;5.70;99.90
19397;DHT22;9834;48.076;11.878;2023-04-25T03:28:56;5.90;99.90
19397;DHT22;9834;48.076;11.878;2023-04-25T03:31:25;6.00;99.90
19397;DHT22;9834;48.076;11.878;2023-04-25T03:33:53;6.10;99.90
19397;DHT22;9834;48.076;11.878;2023-04-25T03:36:21;6.10;99.90
19397;DHT22;9834;48.076;11.878;2023-04-25T03:38:50;6.10;99.90
19397;DHT22;9834;48.076;11.878;2023-04-25T03:41:18;6.10;99.90
19397;DHT22;9834;48.076;11.878;2023-04-25T03:43:46;6.10;99.90
19397;DHT22;9834;48.076;11.878;2023-04-25T03:46:13;6.10;99.90
19397;DHT22;9834;48.076;11.878;2023-04-25T03:48:43;6.00;99.90
19397;DHT22;9834;48.076;11.878;2023-04-25T03:55:27;5.70;99.90
19397;DHT22;9834;48.076;11.878;2023-04-25T03:57:54;5.40;99.90
19397;DHT22;9834;48.076;11.878;2023-04-25T04:00:23;5.20;99.90
19397;DHT22;9834;48.076;11.878;2023-04-25T04:02:51;5.10;99.90
19397;DHT22;9834;48.076;11.878;2023-04-25T04:05:21;5.10;99.90
19397;DHT22;9834;48.076;11.878;2023-04-25T04:07:49;5.00;99.90
19397;DHT22;9834;48.076;11.878;2023-04-25T04:10:17;4.90;99.90
19397;DHT22;9834;48.076;11.878;2023-04-25T04:12:46;5.00;99.90
19397;DHT22;9834;48.076;11.878;2023-04-25T04:15:15;5.00;99.90
19397;DHT22;9834;48.076;11.878;2023-04-25T04:17:43;5.00;99.90
19397;DHT22;9834;48.076;11.878;2023-04-25T04:20:14;5.00;99.90
19397;DHT22;9834;48.076;11.878;2023-04-25T04:22:44;5.00;99.90
19397;DHT22;9834;48.076;11.878;2023-04-25T04:25:11;4.80;99.90
19397;DHT22;9834;48.076;11.878;2023-04-25T04:27:42;4.90;99.90
19397;DHT22;9834;48.076;11.878;2023-04-25T04:30:12;4.90;99.90
19397;DHT22;9834;48.076;11.878;2023-04-25T04:32:46;4.90;99.90
19397;DHT22;9834;48.076;11.878;2023-04-25T04:35:14;5.00;99.90
19397;DHT22;9834;48.076;11.878;2023-04-25T04:37:42;4.90;99.90
19397;DHT22;9834;48.076;11.878;2023-04-25T04:40:11;5.00;99.90
19397;DHT22;9834;48.076;11.878;2023-04-25T04:42:41;5.00;99.90
19397;DHT22;9834;48.076;11.878;2023-04-25T04:45:12;5.10;99.90
19397;DHT22;9834;48.076;11.878;2023-04-25T04:47:40;5.10;99.90
19397;DHT22;9834;48.076;11.878;2023-04-25T04:50:09;5.20;99.90
19397;DHT22;9834;48.076;11.878;2023-04-25T04:52:37;5.20;99.90
19397;DHT22;9834;48.076;11.878;2023-04-25T04:55:09;5.20;99.90
19397;DHT22;9834;48.076;11.878;2023-04-25T04:57:36;5.30;99.90
19397;DHT22;9834;48.076;11.878;2023-04-25T05:00:05;5.30;99.90
19397;DHT22;9834;48.076;11.878;2023-04-25T05:02:38;5.40;99.90
19397;DHT22;9834;48.076;11.878;2023-04-25T05:05:07;5.40;99.90
19397;DHT22;9834;48.076;11.878;2023-04-25T05:07:35;5.50;99.90
19397;DHT22;9834;48.076;11.878;2023-04-25T05:10:03;5.50;99.90
19397;DHT22;9834;48.076;11.878;2023-04-25T05:12:31;5.50;99.90
19397;DHT22;9834;48.076;11.878;2023-04-25T05:15:03;5.50;99.90
19397;DHT22;9834;48.076;11.878;2023-04-25T05:17:31;5.50;99.90
19397;DHT22;9834;48.076;11.878;2023-04-25T05:20:00;5.50;99.90
19397;DHT22;9834;48.076;11.878;2023-04-25T05:22:31;5.50;99.90
19397;DHT22;9834;48.076;11.878;2023-04-25T05:25:03;5.60;99.90
19397;DHT22;9834;48.076;11.878;2023-04-25T05:27:58;5.70;99.90
19397;DHT22;9834;48.076;11.878;2023-04-25T05:31:24;5.70;99.90
19397;DHT22;9834;48.076;11.878;2023-04-25T05:37:46;5.90;99.90
19397;DHT22;9834;48.076;11.878;2023-04-25T05:40:45;6.10;99.90
19397;DHT22;9834;48.076;11.878;2023-04-25T05:43:35;6.00;99.90
19397;DHT22;9834;48.076;11.878;2023-04-25T05:46:11;6.10;99.90
19397;DHT22;9834;48.076;11.878;2023-04-25T05:48:44;6.10;99.90
19397;DHT22;9834;48.076;11.878;2023-04-25T05:51:11;6.20;99.90
19397;DHT22;9834;48.076;11.878;2023-04-25T05:53:40;6.30;99.90
19397;DHT22;9834;48.076;11.878;2023-04-25T05:56:10;6.30;99.90
19397;DHT22;9834;48.076;11.878;2023-04-25T05:58:39;6.30;99.90
19397;DHT22;9834;48.076;11.878;2023-04-25T06:01:07;6.30;99.90
19397;DHT22;9834;48.076;11.878;2023-04-25T06:03:34;6.30;99.90
19397;DHT22;9834;48.076;11.878;2023-04-25T06:06:04;6.30;99.90
19397;DHT22;9834;48.076;11.878;2023-04-25T06:08:34;6.40;99.90
19397;DHT22;9834;48.076;11.878;2023-04-25T06:11:03;6.40;99.90
19397;DHT22;9834;48.076;11.878;2023-04-25T06:13:33;6.50;99.90
19397;DHT22;9834;48.076;11.878;2023-04-25T06:16:08;6.60;99.90
19397;DHT22;9834;48.076;11.878;2023-04-25T06:18:36;6.70;99.90
19397;DHT22;9834;48.076;11.878;2023-04-25T06:21:04;7.00;99.90
19397;DHT22;9834;48.076;11.878;2023-04-25T06:23:33;7.20;99.90
19397;DHT22;9834;48.076;11.878;2023-04-25T06:26:00;7.40;99.90
19397;DHT22;9834;48.076;11.878;2023-04-25T06:28:32;7.40;99.90
19397;DHT22;9834;48.076;11.878;2023-04-25T06:31:01;7.50;99.90
19397;DHT22;9834;48.076;11.878;2023-04-25T06:33:28;7.40;99.90
19397;DHT22;9834;48.076;11.878;2023-04-25T06:36:05;7.50;99.90
19397;DHT22;9834;48.076;11.878;2023-04-25T06:38:33;7.90;99.90
19397;DHT22;9834;48.076;11.878;2023-04-25T06:41:01;8.20;99.90
19397;DHT22;9834;48.076;11.878;2023-04-25T06:43:32;8.20;99.90
19397;DHT22;9834;48.076;11.878;2023-04-25T06:46:00;7.80;99.90
19397;DHT22;9834;48.076;11.878;2023-04-25T06:48:34;7.70;99.90
19397;DHT22;9834;48.076;11.878;2023-04-25T06:51:04;7.60;99.90
19397;DHT22;9834;48.076;11.878;2023-04-25T06:53:33;7.60;99.90
19397;DHT22;9834;48.076;11.878;2023-04-25T06:56:01;7.70;99.90
19397;DHT22;9834;48.076;11.878;2023-04-25T06:58:30;7.60;99.90
19397;DHT22;9834;48.076;11.878;2023-04-25T07:00:58;7.60;99.90
19397;DHT22;9834;48.076;11.878;2023-04-25T07:03:34;7.60;99.90
19397;DHT22;9834;48.076;11.878;2023-04-25T07:06:03;7.50;99.90
19397;DHT22;9834;48.076;11.878;2023-04-25T07:08:31;7.50;99.90
19397;DHT22;9834;48.076;11.878;2023-04-25T07:10:58;7.40;99.90
19397;DHT22;9834;48.076;11.878;2023-04-25T07:13:30;7.40;99.90
19397;DHT22;9834;48.076;11.878;2023-04-25T07:15:57;7.50;99.90
19397;DHT22;9834;48.076;11.878;2023-04-25T07:18:25;7.80;99.90
19397;DHT22;9834;48.076;11.878;2023-04-25T07:20:54;7.90;99.90
19397;DHT22;9834;48.076;11.878;2023-04-25T07:23:23;8.10;99.90
19397;DHT22;9834;48.076;11.878;2023-04-25T07:25:51;8.10;99.90
19397;DHT22;9834;48.076;11.878;2023-04-25T07:28:22;8.30;99.90
19397;DHT22;9834;48.076;11.878;2023-04-25T07:30:54;8.50;99.90
19397;DHT22;9834;48.076;11.878;2023-04-25T07:33:24;8.80;99.90
19397;DHT22;9834;48.076;11.878;2023-04-25T07:35:53;8.80;99.90
19397;DHT22;9834;48.076;11.878;2023-04-25T07:38:24;9.00;99.90
19397;DHT22;9834;48.076;11.878;2023-04-25T07:40:54;9.10;99.90
19397;DHT22;9834;48.076;11.878;2023-04-25T07:43:21;9.10;99.90
19397;DHT22;9834;48.076;11.878;2023-04-25T07:45:51;9.30;99.90
19397;DHT22;9834;48.076;11.878;2023-04-25T07:48:20;9.30;99.90
19397;DHT22;9834;48.076;11.878;2023-04-25T07:50:48;9.50;99.90
19397;DHT22;9834;48.076;11.878;2023-04-25T07:53:16;9.60;99.90
19397;DHT22;9834;48.076;11.878;2023-04-25T07:55:47;9.80;99.90
19397;DHT22;9834;48.076;11.878;2023-04-25T07:58:14;9.90;99.90
19397;DHT22;9834;48.076;11.878;2023-04-25T08:00:42;9.80;99.90
19397;DHT22;9834;48.076;11.878;2023-04-25T08:03:10;9.80;99.80
19397;DHT22;9834;48.076;11.878;2023-04-25T08:05:42;9.60;99.90
19397;DHT22;9834;48.076;11.878;2023-04-25T08:08:15;9.50;99.90
19397;DHT22;9834;48.076;11.878;2023-04-25T08:10:43;9.40;99.90
19397;DHT22;9834;48.076;11.878;2023-04-25T08:13:15;9.10;99.90
19397;DHT22;9834;48.076;11.878;2023-04-25T08:15:44;9.10;99.90
19397;DHT22;9834;48.076;11.878;2023-04-25T08:18:12;9.20;99.90
19397;DHT22;9834;48.076;11.878;2023-04-25T08:20:42;9.20;99.90
19397;DHT22;9834;48.076;11.878;2023-04-25T08:23:17;9.50;99.90
19397;DHT22;9834;48.076;11.878;2023-04-25T08:25:44;9.40;99.90
19397;DHT22;9834;48.076;11.878;2023-04-25T08:28:14;9.60;99.90
19397;DHT22;9834;48.076;11.878;2023-04-25T08:30:48;9.70;99.90
19397;DHT22;9834;48.076;11.878;2023-04-25T08:33:16;9.70;99.90
19397;DHT22;9834;48.076;11.878;2023-04-25T08:35:45;9.80;98.90
19397;DHT22;9834;48.076;11.878;2023-04-25T08:38:13;9.80;98.90
19397;DHT22;9834;48.076;11.878;2023-04-25T08:40:40;9.90;99.10
19397;DHT22;9834;48.076;11.878;2023-04-25T08:43:08;10.20;98.60
19397;DHT22;9834;48.076;11.878;2023-04-25T08:45:40;10.40;95.20
19397;DHT22;9834;48.076;11.878;2023-04-25T08:48:11;11.00;96.10
19397;DHT22;9834;48.076;11.878;2023-04-25T08:50:40;11.50;90.80
19397;DHT22;9834;48.076;11.878;2023-04-25T08:53:14;11.70;92.00
19397;DHT22;9834;48.076;11.878;2023-04-25T08:55:48;11.60;84.00
19397;DHT22;9834;48.076;11.878;2023-04-25T08:58:21;11.80;87.00
19397;DHT22;9834;48.076;11.878;2023-04-25T09:00:50;12.30;82.70
19397;DHT22;9834;48.076;11.878;2023-04-25T09:03:18;12.40;80.70
19397;DHT22;9834;48.076;11.878;2023-04-25T09:05:46;12.20;77.00
19397;DHT22;9834;48.076;11.878;2023-04-25T09:08:15;12.00;79.00
19397;DHT22;9834;48.076;11.878;2023-04-25T09:10:42;12.00;78.60
19397;DHT22;9834;48.076;11.878;2023-04-25T09:13:13;11.90;78.80
19397;DHT22;9834;48.076;11.878;2023-04-25T09:15:49;11.90;77.80
19397;DHT22;9834;48.076;11.878;2023-04-25T09:18:26;11.70;77.50
19397;DHT22;9834;48.076;11.878;2023-04-25T09:20:54;11.60;84.00
19397;DHT22;9834;48.076;11.878;2023-04-25T09:23:23;11.80;83.40
19397;DHT22;9834;48.076;11.878;2023-04-25T09:25:52;11.60;77.80
19397;DHT22;9834;48.076;11.878;2023-04-25T09:28:24;11.60;78.50
19397;DHT22;9834;48.076;11.878;2023-04-25T09:30:55;11.60;80.10
19397;DHT22;9834;48.076;11.878;2023-04-25T09:33:28;11.60;81.40
19397;DHT22;9834;48.076;11.878;2023-04-25T09:36:03;11.90;79.60
19397;DHT22;9834;48.076;11.878;2023-04-25T09:38:39;12.00;79.40
19397;DHT22;9834;48.076;11.878;2023-04-25T09:41:12;12.30;79.40
19397;DHT22;9834;48.076;11.878;2023-04-25T09:43:40;12.50;75.50
19397;DHT22;9834;48.076;11.878;2023-04-25T09:46:14;12.30;73.90
19397;DHT22;9834;48.076;11.878;2023-04-25T09:48:48;12.00;71.80
19397;DHT22;9834;48.076;11.878;2023-04-25T09:51:19;11.90;73.50
19397;DHT22;9834;48.076;11.878;2023-04-25T09:53:51;12.30;70.50
19397;DHT22;9834;48.076;11.878;2023-04-25T09:56:20;13.20;69.00
19397;DHT22;9834;48.076;11.878;2023-04-25T09:58:54;13.40;63.60
19397;DHT22;9834;48.076;11.878;2023-04-25T10:01:25;13.20;66.70
19397;DHT22;9834;48.076;11.878;2023-04-25T10:03:56;12.90;63.30
19397;DHT22;9834;48.076;11.878;2023-04-25T10:06:26;12.70;67.20
19397;DHT22;9834;48.076;11.878;2023-04-25T10:09:06;12.60;69.50
19397;DHT22;9834;48.076;11.878;2023-04-25T10:11:35;12.30;69.70
19397;DHT22;9834;48.076;11.878;2023-04-25T10:14:04;12.00;70.50
19397;DHT22;9834;48.076;11.878;2023-04-25T10:16:42;11.80;69.00
19397;DHT22;9834;48.076;11.878;2023-04-25T10:19:10;11.70;71.10
19397;DHT22;9834;48.076;11.878;2023-04-25T10:21:48;11.60;70.20
19397;DHT22;9834;48.076;11.878;2023-04-25T10:24:19;11.60;69.50
19397;DHT22;9834;48.076;11.878;2023-04-25T10:26:47;11.90;70.50
19397;DHT22;9834;48.076;11.878;2023-04-25T10:29:27;12.60;67.20
19397;DHT22;9834;48.076;11.878;2023-04-25T10:31:54;13.40;65.90
19397;DHT22;9834;48.076;11.878;2023-04-25T10:34:38;14.20;64.40
19397;DHT22;9834;48.076;11.878;2023-04-25T10:37:09;14.40;62.80
19397;DHT22;9834;48.076;11.878;2023-04-25T10:39:40;14.30;61.80
19397;DHT22;9834;48.076;11.878;2023-04-25T10:42:08;14.60;63.70
19397;DHT22;9834;48.076;11.878;2023-04-25T10:44:37;15.00;60.00
19397;DHT22;9834;48.076;11.878;2023-04-25T10:47:07;15.40;59.40
19397;DHT22;9834;48.076;11.878;2023-04-25T10:49:41;15.40;59.70
19397;DHT22;9834;48.076;11.878;2023-04-25T10:52:18;14.90;61.30
19397;DHT22;9834;48.076;11.878;2023-04-25T10:54:52;14.30;59.30
19397;DHT22;9834;48.076;11.878;2023-04-25T10:57:29;14.30;60.00
19397;DHT22;9834;48.076;11.878;2023-04-25T11:00:01;14.80;60.40
19397;DHT22;9834;48.076;11.878;2023-04-25T11:02:33;15.00;60.20
19397;DHT22;9834;48.076;11.878;2023-04-25T11:05:04;15.20;58.00
19397;DHT22;9834;48.076;11.878;2023-04-25T11:07:38;15.90;57.70
19397;DHT22;9834;48.076;11.878;2023-04-25T11:10:09;16.60;55.30
19397;DHT22;9834;48.076;11.878;2023-04-25T11:12:37;16.40;54.90
19397;DHT22;9834;48.076;11.878;2023-04-25T11:15:06;15.90;52.00
19397;DHT22;9834;48.076;11.878;2023-04-25T11:17:33;14.90;56.50
19397;DHT22;9834;48.076;11.878;2023-04-25T11:20:01;13.00;61.50
19397;DHT22;9834;48.076;11.878;2023-04-25T11:22:32;11.40;67.20
19397;DHT22;9834;48.076;11.878;2023-04-25T11:25:09;10.30;73.90
19397;DHT22;9834;48.076;11.878;2023-04-25T11:27:38;9.40;85.20
19397;DHT22;9834;48.076;11.878;2023-04-25T11:30:11;8.80;96.80
19397;DHT22;9834;48.076;11.878;2023-04-25T11:32:41;8.20;99.90
19397;DHT22;9834;48.076;11.878;2023-04-25T11:35:11;7.60;99.90
19397;DHT22;9834;48.076;11.878;2023-04-25T11:37:39;7.10;99.90
19397;DHT22;9834;48.076;11.878;2023-04-25T11:40:11;7.00;99.90
19397;DHT22;9834;48.076;11.878;2023-04-25T11:42:39;7.10;99.90
19397;DHT22;9834;48.076;11.878;2023-04-25T11:45:10;7.30;99.90
19397;DHT22;9834;48.076;11.878;2023-04-25T11:47:38;7.80;99.90
19397;DHT22;9834;48.076;11.878;2023-04-25T11:50:07;8.20;99.90
19397;DHT22;9834;48.076;11.878;2023-04-25T11:52:39;8.80;99.90
19397;DHT22;9834;48.076;11.878;2023-04-25T11:55:12;8.90;99.90
19397;DHT22;9834;48.076;11.878;2023-04-25T11:57:43;8.80;99.90
19397;DHT22;9834;48.076;11.878;2023-04-25T12:00:12;8.20;99.90
19397;DHT22;9834;48.076;11.878;2023-04-25T12:02:41;7.60;99.90
19397;DHT22;9834;48.076;11.878;2023-04-25T12:05:10;7.30;99.90
19397;DHT22;9834;48.076;11.878;2023-04-25T12:07:38;7.00;99.90
19397;DHT22;9834;48.076;11.878;2023-04-25T12:10:10;7.00;99.90
19397;DHT22;9834;48.076;11.878;2023-04-25T12:12:41;7.10;99.90
19397;DHT22;9834;48.076;11.878;2023-04-25T12:15:11;7.20;99.90
19397;DHT22;9834;48.076;11.878;2023-04-25T12:17:41;7.40;99.90
19397;DHT22;9834;48.076;11.878;2023-04-25T12:20:11;7.40;99.90
19397;DHT22;9834;48.076;11.878;2023-04-25T12:22:41;7.60;99.90
19397;DHT22;9834;48.076;11.878;2023-04-25T12:28:10;7.80;99.90
19397;DHT22;9834;48.076;11.878;2023-04-25T12:30:53;7.70;99.90
19397;DHT22;9834;48.076;11.878;2023-04-25T12:33:21;7.70;99.90
19397;DHT22;9834;48.076;11.878;2023-04-25T12:35:48;7.70;99.90
19397;DHT22;9834;48.076;11.878;2023-04-25T12:38:24;7.40;99.90
19397;DHT22;9834;48.076;11.878;2023-04-25T12:40:54;7.50;99.90
19397;DHT22;9834;48.076;11.878;2023-04-25T12:43:22;7.60;99.90
19397;DHT22;9834;48.076;11.878;2023-04-25T12:45:50;7.50;99.90
19397;DHT22;9834;48.076;11.878;2023-04-25T12:48:17;7.40;99.90
19397;DHT22;9834;48.076;11.878;2023-04-25T12:50:46;7.40;99.90
19397;DHT22;9834;48.076;11.878;2023-04-25T12:53:15;7.60;99.90
19397;DHT22;9834;48.076;11.878;2023-04-25T12:55:42;7.80;99.90
19397;DHT22;9834;48.076;11.878;2023-04-25T12:58:16;7.90;99.90
19397;DHT22;9834;48.076;11.878;2023-04-25T13:00:44;8.00;99.90
19397;DHT22;9834;48.076;11.878;2023-04-25T13:03:12;8.50;99.90
19397;DHT22;9834;48.076;11.878;2023-04-25T13:05:40;8.70;99.90
19397;DHT22;9834;48.076;11.878;2023-04-25T13:08:15;9.20;99.90
19397;DHT22;9834;48.076;11.878;2023-04-25T13:10:43;9.70;99.90
19397;DHT22;9834;48.076;11.878;2023-04-25T13:13:12;9.60;99.90
19397;DHT22;9834;48.076;11.878;2023-04-25T13:15:39;9.70;99.90
19397;DHT22;9834;48.076;11.878;2023-04-25T13:18:10;9.90;99.90
19397;DHT22;9834;48.076;11.878;2023-04-25T13:20:37;10.20;99.90
19397;DHT22;9834;48.076;11.878;2023-04-25T13:23:06;10.10;99.90
19397;DHT22;9834;48.076;11.878;2023-04-25T13:25:33;10.10;99.90
19397;DHT22;9834;48.076;11.878;2023-04-25T13:28:01;9.80;99.90
19397;DHT22;9834;48.076;11.878;2023-04-25T13:30:30;9.50;99.90
19397;DHT22;9834;48.076;11.878;2023-04-25T13:32:58;9.30;99.90
19397;DHT22;9834;48.076;11.878;2023-04-25T13:35:33;9.10;99.90
19397;DHT22;9834;48.076;11.878;2023-04-25T13:38:00;9.00;99.90
19397;DHT22;9834;48.076;11.878;2023-04-25T13:40:31;9.10;99.90
19397;DHT22;9834;48.076;11.878;2023-04-25T13:42:59;9.10;99.90
19397;DHT22;9834;48.076;11.878;2023-04-25T13:45:26;9.20;99.90
19397;DHT22;9834;48.076;11.878;2023-04-25T13:47:55;9.00;99.90
19397;DHT22;9834;48.076;11.878;2023-04-25T13:50:23;9.00;99.90
19397;DHT22;9834;48.076;11.878;2023-04-25T13:52:51;8.70;99.90
19397;DHT22;9834;48.076;11.878;2023-04-25T13:55:18;8.60;99.90
19397;DHT22;9834;48.076;11.878;2023-04-25T13:57:46;8.50;99.90
19397;DHT22;9834;48.076;11.878;2023-04-25T14:00:14;8.50;99.90
19397;DHT22;9834;48.076;11.878;2023-04-25T14:02:43;8.40;99.90
19397;DHT22;9834;48.076;11.878;2023-04-25T14:05:12;8.20;99.90
19397;DHT22;9834;48.076;11.878;2023-04-25T14:07:40;8.20;99.90
19397;DHT22;9834;48.076;11.878;2023-04-25T14:10:08;8.20;99.90
19397;DHT22;9834;48.076;11.878;2023-04-25T14:12:36;8.30;99.90
19397;DHT22;9834;48.076;11.878;2023-04-25T14:15:04;8.10;99.90
19397;DHT22;9834;48.076;11.878;2023-04-25T14:17:32;8.30;99.90
19397;DHT22;9834;48.076;11.878;2023-04-25T14:19:59;8.70;99.90
19397;DHT22;9834;48.076;11.878;2023-04-25T14:22:28;8.50;99.90
19397;DHT22;9834;48.076;11.878;2023-04-25T14:24:56;8.30;99.90
19397;DHT22;9834;48.076;11.878;2023-04-25T14:27:23;8.20;99.90
19397;DHT22;9834;48.076;11.878;2023-04-25T14:29:52;8.00;99.90
19397;DHT22;9834;48.076;11.878;2023-04-25T14:32:21;7.90;99.90
19397;DHT22;9834;48.076;11.878;2023-04-25T14:34:49;7.70;99.90
19397;DHT22;9834;48.076;11.878;2023-04-25T14:37:16;7.70;99.90
19397;DHT22;9834;48.076;11.878;2023-04-25T14:39:50;7.50;99.90
19397;DHT22;9834;48.076;11.878;2023-04-25T14:42:17;7.30;99.90
19397;DHT22;9834;48.076;11.878;2023-04-25T14:44:45;7.40;99.90
19397;DHT22;9834;48.076;11.878;2023-04-25T14:47:12;7.50;99.90
19397;DHT22;9834;48.076;11.878;2023-04-25T14:49:41;6.90;99.90
19397;DHT22;9834;48.076;11.878;2023-04-25T14:52:08;6.80;99.90
19397;DHT22;9834;48.076;11.878;2023-04-25T14:54:38;6.70;99.90
19397;DHT22;9834;48.076;11.878;2023-04-25T14:57:07;6.70;99.90
19397;DHT22;9834;48.076;11.878;2023-04-25T14:59:37;6.70;99.90
19397;DHT22;9834;48.076;11.878;2023-04-25T15:02:08;6.70;99.90
19397;DHT22;9834;48.076;11.878;2023-04-25T15:04:36;6.50;99.90
19397;DHT22;9834;48.076;11.878;2023-04-25T15:07:04;6.60;99.90
19397;DHT22;9834;48.076;11.878;2023-04-25T15:09:33;6.60;99.90
19397;DHT22;9834;48.076;11.878;2023-04-25T15:12:00;6.70;99.90
19397;DHT22;9834;48.076;11.878;2023-04-25T15:14:31;7.00;99.90
19397;DHT22;9834;48.076;11.878;2023-04-25T15:17:01;7.30;99.90
19397;DHT22;9834;48.076;11.878;2023-04-25T15:19:29;7.50;99.90
19397;DHT22;9834;48.076;11.878;2023-04-25T15:21:58;7.50;99.90
19397;DHT22;9834;48.076;11.878;2023-04-25T15:24:27;7.80;99.90
19397;DHT22;9834;48.076;11.878;2023-04-25T15:26:54;8.00;99.90
19397;DHT22;9834;48.076;11.878;2023-04-25T15:29:22;8.00;99.90
19397;DHT22;9834;48.076;11.878;2023-04-25T15:31:51;8.20;99.90
19397;DHT22;9834;48.076;11.878;2023-04-25T15:34:19;8.00;99.90
19397;DHT22;9834;48.076;11.878;2023-04-25T15:36:47;7.80;99.90
19397;DHT22;9834;48.076;11.878;2023-04-25T15:39:14;7.50;99.90
19397;DHT22;9834;48.076;11.878;2023-04-25T15:41:44;7.50;99.90
19397;DHT22;9834;48.076;11.878;2023-04-25T15:44:12;7.60;99.90
19397;DHT22;9834;48.076;11.878;2023-04-25T15:46:39;7.50;99.90
19397;DHT22;9834;48.076;11.878;2023-04-25T15:49:09;7.40;99.90
19397;DHT22;9834;48.076;11.878;2023-04-25T15:51:40;7.30;99.90
19397;DHT22;9834;48.076;11.878;2023-04-25T15:54:10;7.60;99.90
19397;DHT22;9834;48.076;11.878;2023-04-25T15:56:38;7.70;99.90
19397;DHT22;9834;48.076;11.878;2023-04-25T15:59:06;7.70;99.90
19397;DHT22;9834;48.076;11.878;2023-04-25T16:01:36;7.60;99.90
19397;DHT22;9834;48.076;11.878;2023-04-25T16:04:04;7.50;99.90
19397;DHT22;9834;48.076;11.878;2023-04-25T16:06:34;7.40;99.90
19397;DHT22;9834;48.076;11.878;2023-04-25T16:09:01;7.20;99.90